Karval, Colorado
Current Conditions -  °F | °C
As of 3:55 PM on Tuesday 27 Jan 2015 (Local Time) from KLIC Reporting Station
Clear Clear  
Wind Chill: 67°   Ceiling: Unl
Heat Index: 67°   Visibility: 10mi
Dew Point: 17°   Wind: 9mph
Humidity: 15%   Direction: 180°S
Pressure: 30.04"   Gusts: NA
Location:  38.73°N, 103.54°W
Report Text: KLIC 272255Z AUTO 18008KT 10SM CLR 19/M08 A3004 RMK AO2 SLP146 T01941083
Loading
Personal Weather Stations






























Interactive Weather Map New forecast layout! Learn more

10-Day Weather Forecast

Advertisements
Track Severe Weather on mobile